Time;durP1;ratioP1;P1;durP2;ratioP2;P2;SDS_P1;SDS_P2;PMS_P1;PMS_P2;Temp;Humidity;BMP_temperature;BMP_pressure;BME280_temperature;BME280_humidity;BME280_pressure;Samples;Min_cycle;Max_cycle;Signal;HPM_P1;HPM_P2
2022/01/28 00:02:26;;;;;;;7.63;1.38;;;4.60;99.90;;;;;;4266122;28;10000543;-77
2022/01/28 00:04:53;;;;;;;12.52;1.63;;;4.60;99.90;;;;;;4964400;28;20090;-78
2022/01/28 00:07:19;;;;;;;16.23;2.00;;;4.60;99.90;;;;;;4965287;28;20151;-77
2022/01/28 00:09:45;;;;;;;10.77;1.83;;;4.60;99.90;;;;;;4957025;28;20511;-78
2022/01/28 00:12:11;;;;;;;12.68;1.80;;;4.70;99.90;;;;;;4963133;28;20191;-77
2022/01/28 00:15:02;;;;;;;12.27;2.08;;;4.70;99.90;;;;;;4963624;28;20109;-77
2022/01/28 00:39:36;;;;;;;11.63;1.30;;;4.40;99.90;;;;;;4979447;28;20129;-78
2022/01/28 00:42:02;;;;;;;11.10;1.70;;;4.40;99.90;;;;;;4984547;28;20038;-78
2022/01/28 00:44:28;;;;;;;13.35;1.83;;;4.30;99.90;;;;;;4982466;28;20034;-77
2022/01/28 00:46:53;;;;;;;8.20;1.80;;;4.20;99.90;;;;;;4976292;28;20031;-77
2022/01/28 00:49:19;;;;;;;13.40;1.92;;;4.20;99.90;;;;;;4989554;28;20037;-77
2022/01/28 00:51:45;;;;;;;11.85;1.42;;;4.20;99.90;;;;;;4984157;28;20045;-77
2022/01/28 00:54:11;;;;;;;14.05;1.92;;;4.20;99.90;;;;;;4980422;28;20715;-77
2022/01/28 00:56:36;;;;;;;10.27;1.52;;;4.20;99.90;;;;;;4983092;28;20096;-77
2022/01/28 00:59:02;;;;;;;13.40;1.92;;;4.10;99.90;;;;;;4985584;28;20033;-77
2022/01/28 01:01:30;;;;;;;13.70;1.50;;;4.10;99.90;;;;;;4975963;28;20057;-77
2022/01/28 01:03:57;;;;;;;11.27;1.75;;;4.10;99.90;;;;;;4983789;28;20088;-77
2022/01/28 01:06:23;;;;;;;13.43;1.60;;;4.10;99.90;;;;;;4983021;28;20030;-78
2022/01/28 01:08:49;;;;;;;7.18;1.30;;;4.10;99.90;;;;;;4981802;28;20471;-77
2022/01/28 01:11:19;;;;;;;18.58;2.38;;;4.10;99.90;;;;;;4981836;28;20057;-77
2022/01/28 01:13:44;;;;;;;13.27;1.85;;;4.10;99.90;;;;;;4987177;28;20034;-77
2022/01/28 01:16:13;;;;;;;11.85;1.55;;;4.10;99.90;;;;;;4986549;28;20395;-77
2022/01/28 01:19:02;;;;;;;15.50;2.00;;;4.10;99.90;;;;;;4981523;28;20037;-77
2022/01/28 01:21:29;;;;;;;11.90;1.70;;;4.10;99.90;;;;;;4976312;28;20502;-77
2022/01/28 01:23:57;;;;;;;9.95;1.58;;;4.10;99.90;;;;;;4980140;28;20046;-76
2022/01/28 01:26:35;;;;;;;11.73;1.50;;;4.10;99.90;;;;;;4978559;28;20022;-78
2022/01/28 01:29:05;;;;;;;9.27;1.50;;;4.10;99.90;;;;;;4976223;28;20042;-78
2022/01/28 01:31:30;;;;;;;14.00;1.77;;;4.10;99.90;;;;;;4977835;28;20145;-78
2022/01/28 01:36:50;;;;;;;11.38;2.13;;;4.10;99.90;;;;;;4972150;28;20050;-79
2022/01/28 01:39:22;;;;;;;16.92;1.88;;;4.10;99.90;;;;;;4982794;28;20035;-78
2022/01/28 01:42:04;;;;;;;10.35;1.63;;;4.10;99.90;;;;;;4978863;28;20045;-78
2022/01/28 01:45:12;;;;;;;13.82;1.95;;;4.00;99.90;;;;;;4985688;28;20030;-78
2022/01/28 01:52:57;;;;;;;16.10;2.42;;;4.10;99.90;;;;;;4977458;28;20080;-78
2022/01/28 01:55:23;;;;;;;12.52;1.60;;;4.20;99.90;;;;;;4983182;28;20030;-78
2022/01/28 01:57:49;;;;;;;17.23;2.75;;;4.10;99.90;;;;;;4977065;28;20061;-78
2022/01/28 02:00:16;;;;;;;14.00;2.08;;;4.10;99.90;;;;;;4981673;28;20454;-78
2022/01/28 02:02:42;;;;;;;13.70;2.08;;;4.10;99.90;;;;;;4980382;28;20033;-78
2022/01/28 02:05:08;;;;;;;20.95;2.95;;;4.10;99.90;;;;;;4983300;28;20034;-78
2022/01/28 02:07:34;;;;;;;14.10;2.00;;;4.10;99.90;;;;;;4980937;28;20029;-78
2022/01/28 02:10:00;;;;;;;22.65;2.58;;;4.20;99.90;;;;;;4980843;28;20423;-78
2022/01/28 02:12:25;;;;;;;18.17;2.38;;;4.20;99.90;;;;;;4981902;28;20019;-77
2022/01/28 02:14:51;;;;;;;16.80;2.45;;;4.20;99.90;;;;;;4980266;28;20047;-78
2022/01/28 02:17:17;;;;;;;13.20;2.25;;;4.20;99.90;;;;;;4976443;28;20038;-78
2022/01/28 02:19:42;;;;;;;15.18;2.05;;;4.20;99.90;;;;;;4977750;28;20364;-78
2022/01/28 02:22:09;;;;;;;19.58;2.42;;;4.20;99.90;;;;;;4980552;28;20082;-78
2022/01/28 02:24:41;;;;;;;15.25;2.20;;;4.20;99.90;;;;;;4978339;28;20046;-79
2022/01/28 02:27:08;;;;;;;10.68;1.48;;;4.20;99.90;;;;;;4978173;28;20741;-78
2022/01/28 02:29:35;;;;;;;13.00;1.70;;;4.20;99.90;;;;;;4979187;28;20050;-78
2022/01/28 02:32:04;;;;;;;10.00;1.67;;;4.20;99.90;;;;;;4978469;28;20529;-78
2022/01/28 02:34:30;;;;;;;10.85;1.88;;;4.20;99.90;;;;;;4981654;28;20038;-78
2022/01/28 02:36:56;;;;;;;11.73;1.65;;;4.20;99.90;;;;;;4982148;28;20037;-78
2022/01/28 02:39:22;;;;;;;13.27;1.83;;;4.20;99.90;;;;;;4987497;28;20403;-77
2022/01/28 02:41:52;;;;;;;16.10;1.73;;;4.20;99.90;;;;;;4987505;28;20042;-78
2022/01/28 02:44:41;;;;;;;11.93;1.95;;;4.20;99.90;;;;;;4976881;28;20160;-78
2022/01/28 02:47:12;;;;;;;9.88;1.70;;;4.20;99.90;;;;;;4981191;28;20041;-78
2022/01/28 02:49:38;;;;;;;11.77;1.65;;;4.20;99.90;;;;;;4980988;28;20034;-78
2022/01/28 02:52:04;;;;;;;12.25;2.38;;;4.30;99.90;;;;;;4974612;28;20146;-78
2022/01/28 02:54:33;;;;;;;14.73;2.33;;;4.20;99.90;;;;;;4982066;28;20034;-78
2022/01/28 02:57:03;;;;;;;12.02;2.00;;;4.20;99.90;;;;;;4982278;28;20061;-77
2022/01/28 02:59:28;;;;;;;12.35;1.88;;;4.20;99.90;;;;;;4976403;28;20038;-78
2022/01/28 03:01:54;;;;;;;13.07;2.25;;;4.20;99.90;;;;;;4983189;28;20205;-77
2022/01/28 03:05:05;;;;;;;10.70;1.70;;;4.10;99.90;;;;;;4984612;28;20501;-78
2022/01/28 03:07:08;;;;;;;14.65;2.03;;;4.20;99.90;;;;;;4977114;28;20566;-77
2022/01/28 03:10:03;;;;;;;13.40;2.00;;;4.10;99.90;;;;;;4982946;28;20026;-78
2022/01/28 03:12:35;;;;;;;9.77;1.83;;;4.10;99.90;;;;;;4986750;28;20454;-77
2022/01/28 03:15:05;;;;;;;11.52;1.65;;;4.00;99.90;;;;;;4988808;28;20031;-77
2022/01/28 03:20:33;;;;;;;15.48;2.22;;;4.00;99.90;;;;;;4987029;28;20034;-77
2022/01/28 03:22:59;;;;;;;13.50;1.70;;;4.00;99.90;;;;;;4986521;28;20100;-79
2022/01/28 03:25:25;;;;;;;16.05;2.42;;;4.00;99.90;;;;;;4986002;28;20077;-79
2022/01/28 03:27:54;;;;;;;16.48;2.55;;;4.00;99.90;;;;;;4985774;28;20033;-79
2022/01/28 03:30:20;;;;;;;11.52;1.48;;;4.00;99.90;;;;;;4977856;28;20133;-78
2022/01/28 03:32:45;;;;;;;13.57;2.45;;;3.90;99.90;;;;;;4978528;28;20069;-78
2022/01/28 03:35:14;;;;;;;14.00;2.40;;;3.80;99.90;;;;;;4981887;28;20198;-78
2022/01/28 03:37:39;;;;;;;14.70;1.80;;;3.80;99.90;;;;;;4981028;28;20077;-79
2022/01/28 03:40:07;;;;;;;12.60;1.63;;;3.70;99.90;;;;;;4986543;28;20077;-79
2022/01/28 03:42:33;;;;;;;20.13;2.58;;;3.60;99.90;;;;;;4982679;28;20065;-79
2022/01/28 03:44:59;;;;;;;15.82;2.25;;;3.60;99.90;;;;;;4983388;28;20291;-78
2022/01/28 03:47:24;;;;;;;12.18;2.00;;;3.60;99.90;;;;;;4988205;28;20113;-78
2022/01/28 03:49:50;;;;;;;16.52;2.53;;;3.50;99.90;;;;;;4977542;28;20026;-78
2022/01/28 03:52:15;;;;;;;15.45;1.95;;;3.50;99.90;;;;;;4985727;28;20117;-78
2022/01/28 03:54:41;;;;;;;12.38;2.33;;;3.40;99.90;;;;;;4978030;28;20683;-79
2022/01/28 03:57:07;;;;;;;14.57;1.70;;;3.40;99.90;;;;;;4988865;28;20065;-79
2022/01/28 03:59:33;;;;;;;13.38;2.22;;;3.40;99.90;;;;;;4985203;28;20054;-79
2022/01/28 04:01:59;;;;;;;12.82;2.10;;;3.40;99.90;;;;;;4974126;28;20215;-78
2022/01/28 04:12:40;;;;;;;13.55;2.58;;;3.60;99.90;;;;;;4981843;28;20029;-78
2022/01/28 04:15:47;;;;;;;13.48;2.00;;;3.60;99.90;;;;;;4971744;28;20039;-78
2022/01/28 04:18:10;;;;;;;13.55;2.15;;;3.60;99.90;;;;;;4973254;28;20023;-78
2022/01/28 04:20:35;;;;;;;10.88;1.88;;;3.60;99.90;;;;;;4970448;28;20031;-78
2022/01/28 04:23:01;;;;;;;16.05;1.98;;;3.60;99.90;;;;;;4980061;28;20394;-78
2022/01/28 04:25:26;;;;;;;13.60;2.05;;;3.60;99.90;;;;;;4974767;28;20023;-77
2022/01/28 04:27:52;;;;;;;14.13;1.90;;;3.60;99.90;;;;;;4971591;28;20065;-78
2022/01/28 04:30:18;;;;;;;16.52;2.20;;;3.70;99.90;;;;;;4972917;28;20041;-77
2022/01/28 04:32:46;;;;;;;12.52;2.08;;;3.70;99.90;;;;;;4971934;28;20045;-78
2022/01/28 04:35:12;;;;;;;14.35;2.22;;;3.70;99.90;;;;;;4974523;28;20053;-78
2022/01/28 04:40:14;;;;;;;12.05;1.45;;;3.70;99.90;;;;;;4971400;28;20030;-78
2022/01/28 04:45:55;;;;;;;16.17;1.70;;;3.70;99.90;;;;;;4938255;29;20031;-78
2022/01/28 04:48:37;;;;;;;15.68;1.52;;;3.60;99.90;;;;;;4940262;28;20094;-77
2022/01/28 04:51:20;;;;;;;9.05;1.40;;;3.60;99.90;;;;;;4964916;28;20034;-78
2022/01/28 05:04:06;;;;;;;13.13;1.60;;;3.40;99.90;;;;;;4972802;28;20109;-78
2022/01/28 05:14:24;;;;;;;13.27;1.75;;;3.30;99.90;;;;;;4984924;28;20471;-80
2022/01/28 05:23:23;;;;;;;17.33;2.85;;;3.20;99.90;;;;;;4981122;28;20069;-80
2022/01/28 05:27:51;;;;;;;13.65;2.47;;;3.30;99.90;;;;;;4953181;28;20490;-79
2022/01/28 05:30:17;;;;;;;15.07;2.17;;;3.20;99.90;;;;;;4978569;28;20145;-79
2022/01/28 05:32:43;;;;;;;14.23;2.38;;;3.20;99.90;;;;;;4981047;28;20069;-79
2022/01/28 05:35:09;;;;;;;24.50;2.80;;;3.20;99.90;;;;;;4979154;28;20026;-79
2022/01/28 05:37:34;;;;;;;17.23;2.50;;;3.20;99.90;;;;;;4974688;28;20045;-79
2022/01/28 05:40:00;;;;;;;12.50;2.15;;;3.20;99.90;;;;;;4981284;28;20022;-79
2022/01/28 05:42:25;;;;;;;17.45;2.40;;;3.30;99.90;;;;;;4975444;28;20058;-79
2022/01/28 05:44:51;;;;;;;17.83;2.83;;;3.30;99.90;;;;;;4973440;28;20031;-79
2022/01/28 05:47:17;;;;;;;21.58;2.80;;;3.30;99.90;;;;;;4286130;28;10001067;-75
2022/01/28 05:49:44;;;;;;;22.38;2.75;;;3.40;99.90;;;;;;4970785;28;20038;-75
2022/01/28 05:52:10;;;;;;;20.00;2.33;;;3.30;99.90;;;;;;4966806;28;20085;-75
2022/01/28 05:54:36;;;;;;;17.50;3.00;;;3.30;99.90;;;;;;4980034;28;20064;-75
2022/01/28 05:57:01;;;;;;;14.95;2.47;;;3.40;99.90;;;;;;4970658;28;20041;-75
2022/01/28 05:59:27;;;;;;;19.02;3.33;;;3.40;99.90;;;;;;4973245;28;20438;-75
2022/01/28 06:01:53;;;;;;;17.63;2.72;;;3.40;99.90;;;;;;4980147;28;20034;-75
2022/01/28 06:04:21;;;;;;;15.77;2.33;;;3.40;99.90;;;;;;4971227;28;23653;-75
2022/01/28 06:06:46;;;;;;;20.05;2.78;;;3.40;99.90;;;;;;4966909;28;20038;-76
2022/01/28 06:09:12;;;;;;;19.60;2.55;;;3.50;99.90;;;;;;4975628;28;20031;-75
2022/01/28 06:11:38;;;;;;;14.68;2.40;;;3.50;99.90;;;;;;4974451;28;20074;-75
2022/01/28 06:14:04;;;;;;;24.25;3.33;;;3.50;99.90;;;;;;4975444;28;20038;-75
2022/01/28 06:16:30;;;;;;;23.45;3.72;;;3.50;99.90;;;;;;4972676;28;20033;-75
2022/01/28 06:18:55;;;;;;;15.60;2.75;;;3.50;99.90;;;;;;4967973;28;20287;-75
2022/01/28 06:21:21;;;;;;;13.75;2.72;;;3.50;99.90;;;;;;4976681;28;20117;-75
2022/01/28 06:23:46;;;;;;;18.17;2.50;;;3.50;99.90;;;;;;4975908;28;20034;-76
2022/01/28 06:26:12;;;;;;;17.65;2.65;;;3.40;99.90;;;;;;4980771;28;20037;-75
2022/01/28 06:28:38;;;;;;;19.30;3.58;;;3.40;99.90;;;;;;4971083;28;20038;-75
2022/01/28 06:31:03;;;;;;;23.20;2.70;;;3.30;99.90;;;;;;4971346;28;20085;-76
2022/01/28 06:33:29;;;;;;;15.07;2.33;;;3.40;99.90;;;;;;4976102;28;20037;-75
2022/01/28 06:35:55;;;;;;;19.65;2.78;;;3.50;99.90;;;;;;4975327;28;20566;-75
2022/01/28 06:38:20;;;;;;;16.52;2.60;;;3.50;99.90;;;;;;4982491;28;20042;-76
2022/01/28 06:40:46;;;;;;;20.00;3.30;;;3.50;99.90;;;;;;4978425;28;20038;-75
2022/01/28 06:43:13;;;;;;;20.38;2.80;;;3.50;99.90;;;;;;4980575;28;20038;-75
2022/01/28 06:45:42;;;;;;;15.18;2.42;;;3.50;99.90;;;;;;4981562;28;20030;-75
2022/01/28 06:48:16;;;;;;;19.75;2.60;;;3.50;99.90;;;;;;4982268;28;20475;-75
2022/01/28 06:50:42;;;;;;;16.13;3.25;;;3.50;99.90;;;;;;4972246;28;20038;-75
2022/01/28 06:53:10;;;;;;;24.00;3.05;;;3.50;99.90;;;;;;4976732;28;20027;-75
2022/01/28 06:55:36;;;;;;;23.75;3.53;;;3.50;99.90;;;;;;4977935;28;21951;-75
2022/01/28 06:58:03;;;;;;;15.02;2.00;;;3.50;99.90;;;;;;4975084;28;20049;-75
2022/01/28 07:00:30;;;;;;;20.65;3.00;;;3.40;99.90;;;;;;4979567;28;20035;-75
2022/01/28 07:02:56;;;;;;;20.27;3.20;;;3.50;99.90;;;;;;4974921;28;20387;-75
2022/01/28 07:05:21;;;;;;;18.40;3.03;;;3.40;99.90;;;;;;4985881;28;20039;-75
2022/01/28 07:07:47;;;;;;;20.75;2.63;;;3.40;99.90;;;;;;4979211;28;20033;-75
2022/01/28 07:10:13;;;;;;;18.95;2.75;;;3.40;99.90;;;;;;4976109;28;20093;-75
2022/01/28 07:12:38;;;;;;;20.35;2.97;;;3.40;99.90;;;;;;4980058;28;20066;-76
2022/01/28 07:15:05;;;;;;;21.10;3.05;;;3.40;99.90;;;;;;4976830;28;20057;-75
2022/01/28 07:17:30;;;;;;;22.27;2.88;;;3.40;99.90;;;;;;4974349;28;20035;-75
2022/01/28 07:19:56;;;;;;;18.25;2.80;;;3.40;99.90;;;;;;4982160;28;20034;-74
2022/01/28 07:22:21;;;;;;;17.20;2.72;;;3.50;99.90;;;;;;4980969;28;20117;-75
2022/01/28 07:24:47;;;;;;;26.35;3.58;;;3.40;99.90;;;;;;4982468;28;20030;-75
2022/01/28 07:27:19;;;;;;;24.35;3.25;;;3.40;99.90;;;;;;4989373;28;20057;-75
2022/01/28 07:29:47;;;;;;;18.70;2.85;;;3.40;99.90;;;;;;4980199;28;20043;-74
2022/01/28 07:32:13;;;;;;;18.42;2.58;;;3.40;99.90;;;;;;4984757;28;20038;-75
2022/01/28 07:34:39;;;;;;;19.30;3.08;;;3.40;99.90;;;;;;4980178;28;20101;-75
2022/01/28 07:37:04;;;;;;;16.65;2.47;;;3.40;99.90;;;;;;4987382;28;20038;-74
2022/01/28 07:39:30;;;;;;;21.05;3.10;;;3.40;99.90;;;;;;4992568;28;20025;-74
2022/01/28 07:41:56;;;;;;;22.05;2.88;;;3.40;99.90;;;;;;4987319;28;20069;-74
2022/01/28 07:44:22;;;;;;;18.23;3.30;;;3.40;99.90;;;;;;4977508;28;20026;-74
2022/01/28 07:46:48;;;;;;;18.23;2.60;;;3.40;99.90;;;;;;4971725;28;20311;-74
2022/01/28 07:49:14;;;;;;;19.98;3.42;;;3.40;99.90;;;;;;4976156;28;20241;-74
2022/01/28 07:51:41;;;;;;;13.77;2.70;;;3.40;99.90;;;;;;4984411;28;20050;-74
2022/01/28 07:54:08;;;;;;;20.17;2.72;;;3.40;99.90;;;;;;4983806;28;20051;-80
2022/01/28 07:56:34;;;;;;;14.75;2.60;;;3.40;99.90;;;;;;4980529;28;20513;-84
2022/01/28 07:58:59;;;;;;;18.38;3.55;;;3.40;99.90;;;;;;4983050;28;20062;-81
2022/01/28 08:01:25;;;;;;;20.75;3.95;;;3.50;99.90;;;;;;4978279;28;20026;-80
2022/01/28 08:03:51;;;;;;;15.95;3.63;;;3.50;99.90;;;;;;4985756;28;20031;-87
2022/01/28 08:06:16;;;;;;;19.40;2.95;;;3.50;99.90;;;;;;4983347;28;20061;-86
2022/01/28 08:08:42;;;;;;;19.15;3.15;;;3.50;99.90;;;;;;4982681;28;20406;-86
2022/01/28 08:11:07;;;;;;;20.42;2.97;;;3.50;99.90;;;;;;4988028;28;20117;-86
2022/01/28 08:13:33;;;;;;;16.45;2.92;;;3.50;99.90;;;;;;4990107;28;20038;-79
2022/01/28 08:15:58;;;;;;;19.55;3.55;;;3.50;99.90;;;;;;4982086;28;20725;-80
2022/01/28 08:18:24;;;;;;;27.27;4.93;;;3.60;99.90;;;;;;4988510;28;20042;-87
2022/01/28 08:20:50;;;;;;;17.98;3.40;;;3.60;99.90;;;;;;4982256;28;20039;-81
2022/01/28 08:23:16;;;;;;;22.50;3.60;;;3.60;99.90;;;;;;4983193;28;20263;-86
2022/01/28 08:25:42;;;;;;;19.98;3.92;;;3.60;99.90;;;;;;4987609;28;20073;-82
2022/01/28 08:28:07;;;;;;;25.70;4.32;;;3.70;99.90;;;;;;4987956;28;20451;-85
2022/01/28 08:30:37;;;;;;;18.50;3.67;;;3.70;99.90;;;;;;4981085;28;20407;-83
2022/01/28 08:33:03;;;;;;;27.42;3.35;;;3.70;99.90;;;;;;4980997;28;20060;-81
2022/01/28 08:35:32;;;;;;;15.82;2.60;;;3.70;99.90;;;;;;4977664;28;20396;-84
2022/01/28 08:37:58;;;;;;;21.20;4.60;;;3.80;99.90;;;;;;4979760;28;20033;-84
2022/01/28 08:40:26;;;;;;;15.57;3.42;;;3.80;99.90;;;;;;4984212;28;20054;-82
2022/01/28 08:42:52;;;;;;;22.25;8.60;;;3.80;99.90;;;;;;4984311;28;20478;-80
2022/01/28 08:45:18;;;;;;;22.33;4.88;;;3.80;99.90;;;;;;4982424;28;20058;-82
2022/01/28 08:47:44;;;;;;;19.13;3.85;;;3.80;99.90;;;;;;4990526;28;20046;-79
2022/01/28 08:50:10;;;;;;;22.38;4.20;;;3.80;99.90;;;;;;4984498;28;20080;-79
2022/01/28 08:52:35;;;;;;;21.45;4.68;;;3.80;99.90;;;;;;4980183;28;20023;-85
2022/01/28 08:55:02;;;;;;;19.60;3.28;;;3.80;99.90;;;;;;4987299;28;20364;-84
2022/01/28 08:57:28;;;;;;;27.63;3.15;;;3.80;99.90;;;;;;4979800;28;20057;-81
2022/01/28 08:59:53;;;;;;;22.30;3.30;;;3.80;99.90;;;;;;4979815;28;20487;-82
2022/01/28 09:02:19;;;;;;;24.13;3.65;;;3.80;99.90;;;;;;4972156;28;20030;-82
2022/01/28 09:04:45;;;;;;;20.05;3.15;;;3.90;99.90;;;;;;4977178;28;20048;-82
2022/01/28 09:07:11;;;;;;;23.25;3.40;;;4.00;99.90;;;;;;4984916;28;20033;-79
2022/01/28 09:09:47;;;;;;;24.55;4.50;;;4.00;99.90;;;;;;4984612;28;20031;-82
2022/01/28 09:12:31;;;;;;;23.85;4.28;;;4.10;99.90;;;;;;4983298;28;20027;-81
2022/01/28 09:14:57;;;;;;;22.27;4.18;;;4.20;99.90;;;;;;4972803;28;20038;-81
2022/01/28 09:17:27;;;;;;;19.45;3.90;;;4.20;99.90;;;;;;4976272;28;20113;-80
2022/01/28 09:19:52;;;;;;;20.35;3.20;;;4.20;99.90;;;;;;4977067;28;20062;-83
2022/01/28 09:22:18;;;;;;;20.92;3.63;;;4.30;99.90;;;;;;4983273;28;20065;-79
2022/01/28 09:24:43;;;;;;;20.20;3.42;;;4.30;99.90;;;;;;4980344;28;20092;-82
2022/01/28 09:27:09;;;;;;;21.88;3.17;;;4.40;99.90;;;;;;4982065;28;20451;-83
2022/01/28 09:29:35;;;;;;;18.10;2.88;;;4.50;99.90;;;;;;4982040;28;20519;-79
2022/01/28 09:32:00;;;;;;;22.40;3.17;;;4.50;99.90;;;;;;4979215;28;20026;-79
2022/01/28 09:34:27;;;;;;;22.33;3.20;;;4.60;99.90;;;;;;4979772;28;20029;-79
2022/01/28 09:36:53;;;;;;;19.90;3.60;;;4.70;99.90;;;;;;4974790;28;20076;-79
2022/01/28 09:39:20;;;;;;;21.52;3.70;;;4.90;99.90;;;;;;4975340;28;20046;-80
2022/01/28 09:41:47;;;;;;;18.73;3.03;;;5.00;99.90;;;;;;4974261;28;20037;-79
2022/01/28 09:44:18;;;;;;;28.08;3.47;;;5.00;99.90;;;;;;4972682;28;20037;-80
2022/01/28 09:46:44;;;;;;;24.27;3.95;;;5.00;99.90;;;;;;4980928;28;20054;-79
2022/01/28 09:49:11;;;;;;;18.60;3.40;;;5.30;99.90;;;;;;4976247;28;20522;-79
2022/01/28 09:51:37;;;;;;;20.20;2.97;;;5.40;99.90;;;;;;4981106;28;20019;-80
2022/01/28 09:54:03;;;;;;;23.77;3.05;;;5.40;99.90;;;;;;4972773;28;20027;-80
2022/01/28 09:56:30;;;;;;;21.75;3.22;;;5.50;99.90;;;;;;4979057;28;20030;-81
2022/01/28 09:58:55;;;;;;;27.27;3.70;;;5.50;99.90;;;;;;4972837;28;20030;-80
2022/01/28 10:01:21;;;;;;;20.15;3.42;;;5.50;99.90;;;;;;4976208;28;20031;-79
2022/01/28 10:04:09;;;;;;;23.65;3.63;;;5.40;99.90;;;;;;4976123;28;20027;-76
2022/01/28 10:06:36;;;;;;;25.85;3.35;;;5.40;99.90;;;;;;4976324;28;20037;-75
2022/01/28 10:09:09;;;;;;;20.38;2.83;;;5.40;99.90;;;;;;4983152;28;20092;-75
2022/01/28 10:11:36;;;;;;;22.33;3.15;;;5.50;99.90;;;;;;4981061;28;20045;-76
2022/01/28 10:14:14;;;;;;;19.33;3.13;;;5.40;99.90;;;;;;4977154;28;20549;-79
2022/01/28 10:16:40;;;;;;;20.05;3.22;;;5.40;99.90;;;;;;4974828;28;20495;-79
2022/01/28 10:19:11;;;;;;;20.65;2.72;;;5.30;99.90;;;;;;4976591;28;20100;-78
2022/01/28 10:21:39;;;;;;;19.63;2.88;;;5.30;99.90;;;;;;4979843;28;20487;-78
2022/01/28 10:24:07;;;;;;;16.02;2.97;;;5.40;99.90;;;;;;4980307;28;20031;-79
2022/01/28 10:26:53;;;;;;;23.20;3.05;;;5.40;99.90;;;;;;4970722;28;20022;-78
2022/01/28 10:29:21;;;;;;;17.25;2.70;;;5.40;99.90;;;;;;4985517;28;20043;-79
2022/01/28 10:31:51;;;;;;;18.42;2.92;;;5.40;99.90;;;;;;4978054;28;20039;-79
2022/01/28 10:34:20;;;;;;;16.55;2.78;;;5.40;99.90;;;;;;4975132;28;20053;-79
2022/01/28 10:36:47;;;;;;;17.73;3.05;;;5.60;99.90;;;;;;4982790;28;20027;-79
2022/01/28 10:39:20;;;;;;;25.58;3.92;;;5.80;99.90;;;;;;4980665;28;20679;-79
2022/01/28 10:41:50;;;;;;;19.17;3.22;;;6.00;99.90;;;;;;4975964;28;20033;-79
2022/01/28 10:44:16;;;;;;;19.60;3.67;;;6.00;99.90;;;;;;4973904;28;20034;-79
2022/01/28 10:46:51;;;;;;;22.15;3.30;;;6.00;99.90;;;;;;4980505;28;20034;-79
2022/01/28 10:49:17;;;;;;;16.98;2.90;;;6.00;99.90;;;;;;4980552;28;20033;-79
2022/01/28 10:51:45;;;;;;;16.60;3.05;;;6.00;99.90;;;;;;4981032;28;20035;-78
2022/01/28 10:54:18;;;;;;;22.58;3.42;;;6.00;99.90;;;;;;4977966;28;20113;-78
2022/01/28 10:56:59;;;;;;;17.95;3.28;;;5.90;99.90;;;;;;4976499;28;20033;-78
2022/01/28 10:59:27;;;;;;;18.92;3.15;;;5.80;99.90;;;;;;4982286;28;20042;-78
2022/01/28 11:01:53;;;;;;;23.13;3.25;;;5.70;99.90;;;;;;4980447;28;20034;-78
2022/01/28 11:04:20;;;;;;;21.00;2.85;;;5.80;99.90;;;;;;4985472;28;20466;-78
2022/01/28 11:06:47;;;;;;;14.38;2.45;;;5.80;99.90;;;;;;4982477;28;20050;-78
2022/01/28 11:09:15;;;;;;;23.33;3.60;;;5.90;99.90;;;;;;4975908;28;20569;-78
2022/01/28 11:11:41;;;;;;;16.13;2.80;;;6.00;99.90;;;;;;4979937;28;20031;-78
2022/01/28 11:14:08;;;;;;;25.38;3.40;;;6.00;99.90;;;;;;4983752;28;20058;-78
2022/01/28 11:16:34;;;;;;;25.58;3.63;;;5.90;99.90;;;;;;4977830;28;20031;-78
2022/01/28 11:19:01;;;;;;;20.67;3.50;;;5.90;99.90;;;;;;4990649;28;20259;-78
2022/01/28 11:21:45;;;;;;;17.75;3.17;;;;;;;;;;4985407;28;20117;-78
2022/01/28 11:24:23;;;;;;;23.33;3.45;;;;;;;;;;4985103;28;20105;-78
2022/01/28 11:26:52;;;;;;;23.20;3.72;;;;;;;;;;4978582;28;20023;-78
2022/01/28 11:29:19;;;;;;;19.33;3.47;;;;;;;;;;4974709;28;20053;-78
2022/01/28 11:31:45;;;;;;;24.02;3.78;;;;;;;;;;4980107;28;20026;-78
2022/01/28 11:34:18;;;;;;;19.35;3.20;;;;;;;;;;4982369;28;20498;-78
2022/01/28 11:36:44;;;;;;;;;;;;;;;;;;4984149;28;20125;-78
2022/01/28 11:39:28;;;;;;;20.20;3.03;;;;;;;;;;4982269;28;20067;-78
2022/01/28 11:42:18;;;;;;;20.92;2.95;;;;;;;;;;4980003;28;20453;-78
2022/01/28 11:44:44;;;;;;;25.83;3.55;;;;;;;;;;4973538;28;20042;-78
2022/01/28 11:47:12;;;;;;;17.80;3.33;;;5.80;99.90;;;;;;4977469;28;20037;-78
2022/01/28 11:50:11;;;;;;;22.17;2.85;;;5.80;99.90;;;;;;4979420;28;20037;-78
2022/01/28 11:52:43;;;;;;;15.90;2.75;;;5.70;99.90;;;;;;4951118;28;20117;-78
2022/01/28 11:55:31;;;;;;;25.80;3.88;;;5.70;99.90;;;;;;4981373;28;20057;-78
2022/01/28 11:58:12;;;;;;;26.50;3.17;;;5.70;99.90;;;;;;4980825;28;20030;-78
2022/01/28 12:00:44;;;;;;;16.40;3.53;;;5.60;99.90;;;;;;4982261;28;20045;-78
2022/01/28 12:03:26;;;;;;;23.77;3.47;;;5.60;99.90;;;;;;4979781;28;20100;-78
2022/01/28 12:05:56;;;;;;;18.67;2.80;;;5.60;99.90;;;;;;4983124;28;20058;-78
2022/01/28 12:08:27;;;;;;;21.63;3.20;;;5.70;99.90;;;;;;4984548;28;20034;-78
2022/01/28 12:10:54;;;;;;;22.63;2.85;;;5.70;99.90;;;;;;4979912;28;20111;-78
2022/01/28 12:13:31;;;;;;;23.33;3.58;;;5.70;99.90;;;;;;4977200;28;20026;-78
2022/01/28 12:16:13;;;;;;;26.17;3.53;;;5.70;99.90;;;;;;4990302;28;20026;-77
2022/01/28 12:19:01;;;;;;;19.58;3.13;;;5.70;99.90;;;;;;4978762;28;20565;-78
2022/01/28 12:21:34;;;;;;;18.05;3.13;;;5.80;99.90;;;;;;4635460;28;10000093;-77
2022/01/28 12:24:35;;;;;;;25.95;3.63;;;5.90;99.90;;;;;;4978179;28;20142;-78
2022/01/28 12:27:06;;;;;;;23.58;4.03;;;5.90;99.90;;;;;;4951697;28;20045;-78
2022/01/28 12:29:41;;;;;;;32.83;3.65;;;5.90;99.90;;;;;;4978116;28;20521;-78
2022/01/28 12:32:07;;;;;;;20.98;3.28;;;5.90;99.90;;;;;;4983522;28;20376;-78
2022/01/28 12:34:33;;;;;;;16.27;3.03;;;6.10;99.90;;;;;;4986009;28;20454;-78
2022/01/28 12:36:59;;;;;;;22.88;3.33;;;6.20;99.90;;;;;;4981540;28;20050;-81
2022/01/28 12:39:34;;;;;;;22.35;3.58;;;6.20;99.90;;;;;;4979984;28;20117;-76
2022/01/28 12:42:08;;;;;;;18.05;2.50;;;6.30;99.90;;;;;;4987581;28;20026;-74
2022/01/28 12:44:37;;;;;;;19.60;3.58;;;6.40;99.90;;;;;;4976057;28;20092;-74
2022/01/28 12:47:05;;;;;;;23.23;3.40;;;6.40;99.90;;;;;;4987206;28;20081;-75
2022/01/28 12:49:33;;;;;;;18.48;3.15;;;6.30;99.90;;;;;;4981241;28;20129;-81
2022/01/28 12:52:05;;;;;;;18.08;3.03;;;6.20;99.90;;;;;;4977568;28;20027;-74
2022/01/28 12:54:37;;;;;;;16.92;2.88;;;6.20;99.90;;;;;;4979252;28;20034;-76
2022/01/28 12:57:04;;;;;;;16.77;2.85;;;6.20;99.90;;;;;;4979840;28;20046;-76
2022/01/28 12:59:30;;;;;;;20.60;3.20;;;6.10;99.90;;;;;;4983623;28;20426;-76
2022/01/28 13:01:57;;;;;;;20.88;3.20;;;6.10;99.90;;;;;;4984696;28;20037;-76
2022/01/28 13:04:35;;;;;;;19.52;2.92;;;6.00;99.90;;;;;;4979313;28;20030;-75
2022/01/28 13:08:24;;;;;;;21.17;2.97;;;6.10;99.90;;;;;;4980436;28;20026;-76
2022/01/28 13:09:49;;;;;;;16.67;2.80;;;6.00;99.90;;;;;;4981093;28;20430;-76
2022/01/28 13:12:26;;;;;;;16.10;3.05;;;6.00;99.90;;;;;;4978907;28;20168;-76
2022/01/28 13:14:53;;;;;;;20.35;3.42;;;6.00;99.90;;;;;;4983976;28;20042;-76
2022/01/28 13:17:23;;;;;;;16.05;3.03;;;6.00;99.90;;;;;;4972789;28;20445;-76
2022/01/28 13:19:56;;;;;;;18.83;3.03;;;6.00;99.90;;;;;;4975463;28;20153;-76
2022/01/28 13:22:23;;;;;;;30.10;4.33;;;6.00;99.90;;;;;;4970810;28;20101;-75
2022/01/28 13:24:51;;;;;;;21.27;3.38;;;6.00;99.90;;;;;;4980180;28;20512;-76
2022/01/28 13:27:17;;;;;;;24.52;4.30;;;6.00;99.90;;;;;;4978194;28;20038;-75
2022/01/28 13:29:47;;;;;;;25.70;3.13;;;5.90;99.90;;;;;;4980705;28;20051;-76
2022/01/28 13:32:24;;;;;;;14.40;2.72;;;5.90;99.90;;;;;;4979446;28;20060;-76
2022/01/28 13:34:58;;;;;;;18.42;2.95;;;5.90;99.90;;;;;;4973082;28;20039;-76
2022/01/28 13:37:43;;;;;;;18.38;3.47;;;5.90;99.90;;;;;;4978469;28;20117;-76
2022/01/28 13:40:10;;;;;;;25.80;3.22;;;5.90;99.90;;;;;;4978868;28;20093;-75
2022/01/28 13:42:54;;;;;;;18.38;2.63;;;6.00;99.90;;;;;;4978211;28;20038;-76
2022/01/28 13:45:28;;;;;;;17.42;2.65;;;6.20;99.90;;;;;;4978427;28;20073;-76
2022/01/28 13:47:54;;;;;;;19.88;2.83;;;6.30;99.90;;;;;;4978976;28;20034;-80
2022/01/28 13:50:32;;;;;;;17.38;2.67;;;6.30;99.90;;;;;;4975589;28;20041;-74
2022/01/28 13:56:02;;;;;;;20.98;3.17;;;6.40;99.90;;;;;;4976188;28;20027;-74
2022/01/28 13:58:29;;;;;;;21.73;3.40;;;;;;;;;;4981530;28;20548;-74
2022/01/28 14:00:57;;;;;;;22.95;3.15;;;6.30;99.90;;;;;;4976867;28;20034;-74
2022/01/28 14:03:26;;;;;;;24.75;3.22;;;6.40;99.90;;;;;;4974887;28;20030;-73
2022/01/28 14:05:56;;;;;;;19.40;3.28;;;6.30;99.90;;;;;;4978787;28;20030;-75
2022/01/28 14:08:48;;;;;;;15.60;2.85;;;6.30;99.90;;;;;;4979885;28;20027;-74
2022/01/28 14:11:22;;;;;;;18.13;2.50;;;6.20;99.90;;;;;;4976454;28;20245;-74
2022/01/28 14:14:24;;;;;;;19.55;2.90;;;6.00;99.90;;;;;;4979968;28;20033;-75
2022/01/28 14:17:02;;;;;;;15.20;2.92;;;6.10;99.90;;;;;;4975237;28;20034;-78
2022/01/28 14:19:32;;;;;;;14.82;2.95;;;6.00;99.90;;;;;;4976896;28;20031;-75